Time;durP1;ratioP1;P1;durP2;ratioP2;P2;SDS_P1;SDS_P2;PMS_P1;PMS_P2;Temp;Humidity;BMP_temperature;BMP_pressure;BME280_temperature;BME280_humidity;BME280_pressure;Samples;Min_cycle;Max_cycle;Signal;HPM_P1;HPM_P2
2023/08/03 00:02:20;;;;;;;3.40;1.40;;;;;;;;;;110217;1279;22116;-79
2023/08/03 00:04:47;;;;;;;4.70;1.70;;;;;;;;;;110138;1277;22123;-79
2023/08/03 00:07:14;;;;;;;5.20;1.50;;;;;;;;;;110111;1279;22100;-79
2023/08/03 00:09:43;;;;;;;3.40;1.50;;;;;;;;;;110320;1261;22104;-79
2023/08/03 00:12:17;;;;;;;4.00;1.40;;;;;;;;;;110157;1279;22168;-79
2023/08/03 00:14:44;;;;;;;3.30;1.40;;;;;;;;;;110111;1279;22105;-79
2023/08/03 00:17:12;;;;;;;3.20;1.50;;;;;;;;;;110153;1279;22084;-79
2023/08/03 00:19:39;;;;;;;3.80;1.60;;;;;;;;;;110343;1259;22408;-78
2023/08/03 00:22:05;;;;;;;3.20;1.40;;;;;;;;;;110257;1275;21993;-79
2023/08/03 00:24:32;;;;;;;3.60;1.20;;;;;;;;;;110069;1279;23063;-80
2023/08/03 00:26:59;;;;;;;2.60;1.20;;;;;;;;;;110097;1279;22576;-79
2023/08/03 00:29:29;;;;;;;3.50;1.60;;;;;;;;;;110211;1263;22188;-80
2023/08/03 00:31:59;;;;;;;4.90;1.60;;;;;;;;;;110140;1279;22091;-79
2023/08/03 00:34:26;;;;;;;4.50;1.50;;;;;;;;;;110236;1279;22099;-78
2023/08/03 00:36:56;;;;;;;3.50;1.40;;;;;;;;;;110110;1279;22091;-79
2023/08/03 00:39:52;;;;;;;4.50;1.40;;;;;;;;;;110196;1262;22143;-79
2023/08/03 00:42:20;;;;;;;3.90;1.20;;;;;;;;;;110075;1280;22128;-79
2023/08/03 00:44:48;;;;;;;3.60;1.50;;;;;;;;;;110095;1280;22122;-79
2023/08/03 00:47:16;;;;;;;4.60;1.40;;;;;;;;;;110112;1280;22177;-78
2023/08/03 00:49:44;;;;;;;5.10;1.40;;;;;;;;;;110146;1262;22878;-78
2023/08/03 00:52:11;;;;;;;3.40;1.20;;;;;;;;;;110097;1280;22263;-79
2023/08/03 00:54:39;;;;;;;4.10;1.60;;;;;;;;;;110230;1280;22081;-78
2023/08/03 00:57:06;;;;;;;4.00;1.30;;;;;;;;;;110233;1277;22095;-79
2023/08/03 00:59:34;;;;;;;3.60;1.40;;;;;;;;;;107621;1256;3225479;-78
2023/08/03 01:02:01;;;;;;;4.30;1.40;;;;;;;;;;110095;1280;22151;-79
2023/08/03 01:04:30;;;;;;;3.40;1.20;;;;;;;;;;110087;1280;22087;-78
2023/08/03 01:06:57;;;;;;;3.70;1.00;;;;;;;;;;110102;1280;22074;-78
2023/08/03 01:09:25;;;;;;;2.70;1.30;;;;;;;;;;110098;1280;22107;-78
2023/08/03 01:11:53;;;;;;;4.10;1.50;;;;;;;;;;110513;1262;22104;-79
2023/08/03 01:14:22;;;;;;;2.70;1.10;;;;;;;;;;110146;1280;22109;-79
2023/08/03 01:16:49;;;;;;;4.50;1.30;;;;;;;;;;110105;1280;22142;-78
2023/08/03 01:19:17;;;;;;;3.30;1.10;;;;;;;;;;110088;1280;22109;-79
2023/08/03 01:21:45;;;;;;;4.80;1.50;;;;;;;;;;110408;1262;22085;-78
2023/08/03 01:24:13;;;;;;;2.50;0.90;;;;;;;;;;110072;1280;22173;-78
2023/08/03 01:26:42;;;;;;;3.50;1.50;;;;;;;;;;110220;1280;22762;-78
2023/08/03 01:29:10;;;;;;;3.20;1.20;;;;;;;;;;110107;1280;22105;-78
2023/08/03 01:31:37;;;;;;;5.20;1.40;;;;;;;;;;110338;1262;22904;-77
2023/08/03 01:34:05;;;;;;;4.50;1.50;;;;;;;;;;110109;1269;22286;-78
2023/08/03 01:36:32;;;;;;;4.20;1.50;;;;;;;;;;110075;1280;22118;-78
2023/08/03 01:39:08;;;;;;;3.80;1.20;;;;;;;;;;110200;1280;22797;-78
2023/08/03 01:41:38;;;;;;;4.40;1.50;;;;;;;;;;110316;1260;22184;-78
2023/08/03 01:44:33;;;;;;;5.20;1.80;;;;;;;;;;110040;1280;22143;-79
2023/08/03 01:47:02;;;;;;;6.10;1.90;;;;;;;;;;110077;1280;22126;-78
2023/08/03 01:49:33;;;;;;;5.00;1.50;;;;;;;;;;110047;1280;22111;-78
2023/08/03 01:52:02;;;;;;;4.40;1.60;;;;;;;;;;110318;1259;22835;-78
2023/08/03 01:54:31;;;;;;;4.50;1.70;;;;;;;;;;110037;1280;22947;-78
2023/08/03 01:57:00;;;;;;;3.90;1.60;;;;;;;;;;110039;1280;23106;-80
2023/08/03 01:59:29;;;;;;;4.00;1.70;;;;;;;;;;110034;1280;22070;-79
2023/08/03 02:01:58;;;;;;;3.70;1.70;;;;;;;;;;110278;1264;22133;-77
2023/08/03 02:04:27;;;;;;;4.50;1.60;;;;;;;;;;110062;1280;22851;-79
2023/08/03 02:06:57;;;;;;;3.90;1.50;;;;;;;;;;110079;1278;22298;-78
2023/08/03 02:09:27;;;;;;;4.00;1.70;;;;;;;;;;110070;1280;23197;-78
2023/08/03 02:11:56;;;;;;;4.00;1.60;;;;;;;;;;110173;1263;22605;-78
2023/08/03 02:14:26;;;;;;;4.50;1.50;;;;;;;;;;110092;1280;22096;-77
2023/08/03 02:16:56;;;;;;;4.80;1.60;;;;;;;;;;110058;1280;22124;-78
2023/08/03 02:19:25;;;;;;;4.30;1.50;;;;;;;;;;110098;1280;22800;-77
2023/08/03 02:21:54;;;;;;;3.60;1.50;;;;;;;;;;110242;1262;22149;-78
2023/08/03 02:24:23;;;;;;;4.80;1.50;;;;;;;;;;110032;1280;22093;-78
2023/08/03 02:26:52;;;;;;;5.30;1.70;;;;;;;;;;110030;1280;22046;-78
2023/08/03 02:29:21;;;;;;;3.90;1.30;;;;;;;;;;110077;1280;22064;-78
2023/08/03 02:31:50;;;;;;;3.80;1.40;;;;;;;;;;110102;1264;22874;-78
2023/08/03 02:34:19;;;;;;;5.30;1.70;;;;;;;;;;110130;1280;22585;-78
2023/08/03 02:36:50;;;;;;;4.70;1.90;;;;;;;;;;110066;1278;22085;-78
2023/08/03 02:46:13;;;;;;;5.90;1.50;;;;;;;;;;104152;1300;545640;-82
2023/08/03 02:48:39;;;;;;;5.00;1.30;;;;;;;;;;106358;1285;22533;-81
2023/08/03 02:51:07;;;;;;;3.80;1.60;;;;;;;;;;106470;1285;24250;-80
2023/08/03 02:53:36;;;;;;;6.40;1.80;;;;;;;;;;106111;1285;24286;-78
2023/08/03 02:56:03;;;;;;;4.20;1.70;;;;;;;;;;106405;1269;22664;-83
2023/08/03 02:58:32;;;;;;;4.10;1.80;;;;;;;;;;106096;1286;24212;-84
2023/08/03 03:01:02;;;;;;;3.40;1.40;;;;;;;;;;104184;1282;3158189;-82
2023/08/03 03:03:29;;;;;;;4.70;1.50;;;;;;;;;;106490;1281;24352;-81
2023/08/03 03:05:56;;;;;;;3.40;1.10;;;;;;;;;;106515;1281;24368;-79
2023/08/03 03:08:28;;;;;;;5.30;1.60;;;;;;;;;;106787;1281;24252;-82
2023/08/03 03:10:56;;;;;;;3.90;1.50;;;;;;;;;;106581;1281;22653;-83
2023/08/03 03:13:23;;;;;;;4.60;1.70;;;;;;;;;;106768;1281;22583;-82
2023/08/03 03:15:50;;;;;;;4.90;1.40;;;;;;;;;;106484;1263;22747;-83
2023/08/03 03:18:17;;;;;;;4.00;1.50;;;;;;;;;;106511;1281;25346;-82
2023/08/03 03:20:44;;;;;;;5.30;1.60;;;;;;;;;;106777;1281;22524;-78
2023/08/03 03:23:11;;;;;;;4.60;1.30;;;;;;;;;;106481;1281;24192;-79
2023/08/03 03:25:38;;;;;;;4.90;1.50;;;;;;;;;;107206;1272;25238;-78
2023/08/03 03:28:05;;;;;;;4.30;1.40;;;;;;;;;;107133;1256;24209;-79
2023/08/03 03:30:33;;;;;;;4.20;1.50;;;;;;;;;;107220;1272;22641;-79
2023/08/03 03:33:00;;;;;;;4.30;1.50;;;;;;;;;;107241;1272;22544;-82
2023/08/03 03:35:27;;;;;;;5.00;1.50;;;;;;;;;;106981;1272;24333;-79
2023/08/03 03:37:54;;;;;;;4.30;1.30;;;;;;;;;;107222;1258;22498;-82
2023/08/03 03:40:23;;;;;;;5.50;1.30;;;;;;;;;;107018;1273;23101;-83
2023/08/03 03:42:50;;;;;;;5.10;1.60;;;;;;;;;;107196;1264;24518;-86
2023/08/03 03:45:24;;;;;;;4.30;1.50;;;;;;;;;;107011;1273;22662;-83
2023/08/03 03:47:51;;;;;;;3.80;1.40;;;;;;;;;;106966;1255;25298;-82
2023/08/03 03:50:18;;;;;;;4.70;1.50;;;;;;;;;;106965;1274;22521;-79
2023/08/03 03:52:45;;;;;;;4.30;1.30;;;;;;;;;;107118;1274;22512;-85
2023/08/03 03:55:14;;;;;;;5.20;1.30;;;;;;;;;;107231;1274;23905;-79
2023/08/03 03:57:42;;;;;;;3.40;1.00;;;;;;;;;;106912;1269;24353;-80
2023/08/03 04:00:09;;;;;;;5.50;1.50;;;;;;;;;;107104;1273;22515;-82
2023/08/03 04:02:41;;;;;;;3.60;1.40;;;;;;;;;;107146;1273;24193;-83
2023/08/03 04:05:12;;;;;;;4.00;1.10;;;;;;;;;;107137;1273;24240;-83
2023/08/03 04:07:38;;;;;;;4.10;1.50;;;;;;;;;;106977;1259;22521;-81
2023/08/03 04:10:05;;;;;;;5.30;1.40;;;;;;;;;;106972;1275;22528;-80
2023/08/03 04:12:32;;;;;;;3.90;1.40;;;;;;;;;;107030;1274;22517;-85
2023/08/03 04:14:59;;;;;;;4.80;1.30;;;;;;;;;;106979;1274;25363;-80
2023/08/03 04:17:26;;;;;;;5.70;1.40;;;;;;;;;;106950;1273;22510;-80
2023/08/03 04:19:52;;;;;;;5.50;1.50;;;;;;;;;;107184;1274;22664;-80
2023/08/03 04:22:19;;;;;;;7.80;1.60;;;;;;;;;;106997;1275;22555;-77
2023/08/03 04:24:46;;;;;;;5.10;1.20;;;;;;;;;;107086;1274;22526;-80
2023/08/03 04:27:13;;;;;;;5.60;1.70;;;;;;;;;;107008;1251;22528;-77
2023/08/03 04:29:41;;;;;;;3.60;1.10;;;;;;;;;;107267;1273;26442;-85
2023/08/03 04:32:10;;;;;;;4.00;1.20;;;;;;;;;;106986;1252;22516;-82
2023/08/03 04:34:37;;;;;;;4.90;1.30;;;;;;;;;;107008;1273;24466;-78
2023/08/03 04:37:07;;;;;;;5.50;1.40;;;;;;;;;;106970;1273;24231;-80
2023/08/03 04:39:37;;;;;;;4.00;1.40;;;;;;;;;;107128;1273;25393;-82
2023/08/03 04:42:04;;;;;;;4.20;1.20;;;;;;;;;;107159;1273;24336;-84
2023/08/03 04:44:33;;;;;;;4.70;1.30;;;;;;;;;;107321;1264;22925;-82
2023/08/03 04:47:00;;;;;;;5.00;1.50;;;;;;;;;;107193;1273;22533;-84
2023/08/03 04:49:27;;;;;;;4.50;1.40;;;;;;;;;;107074;1257;24327;-78
2023/08/03 04:51:56;;;;;;;4.80;1.30;;;;;;;;;;106969;1274;25331;-83
2023/08/03 04:54:23;;;;;;;4.80;1.40;;;;;;;;;;107097;1274;22537;-77
2023/08/03 04:56:50;;;;;;;7.90;1.80;;;;;;;;;;107139;1274;22519;-84
2023/08/03 04:59:17;;;;;;;3.90;1.10;;;;;;;;;;107143;1257;22524;-81
2023/08/03 05:01:44;;;;;;;6.30;1.60;;;;;;;;;;106977;1273;28228;-77
2023/08/03 05:04:11;;;;;;;5.70;1.50;;;;;;;;;;107024;1273;24292;-83
2023/08/03 05:06:38;;;;;;;4.00;1.20;;;;;;;;;;107071;1273;22521;-80
2023/08/03 05:09:07;;;;;;;3.90;1.10;;;;;;;;;;107121;1257;22521;-80
2023/08/03 05:11:34;;;;;;;4.70;1.50;;;;;;;;;;106949;1275;22631;-83
2023/08/03 05:14:01;;;;;;;4.70;1.30;;;;;;;;;;106948;1254;22531;-85
2023/08/03 05:16:35;;;;;;;4.40;1.50;;;;;;;;;;106965;1274;22532;-81
2023/08/03 05:19:05;;;;;;;5.70;1.50;;;;;;;;;;107118;1257;25473;-79
2023/08/03 05:21:32;;;;;;;6.40;1.70;;;;;;;;;;107110;1273;25338;-83
2023/08/03 05:23:58;;;;;;;4.50;1.50;;;;;;;;;;107198;1273;25220;-80
2023/08/03 05:26:26;;;;;;;7.80;1.40;;;;;;;;;;107169;1273;24238;-84
2023/08/03 05:28:53;;;;;;;6.90;1.70;;;;;;;;;;107104;1274;22524;-78
2023/08/03 05:31:20;;;;;;;6.40;1.60;;;;;;;;;;106991;1274;22520;-79
2023/08/03 05:33:47;;;;;;;5.60;1.50;;;;;;;;;;106994;1274;25392;-77
2023/08/03 05:36:14;;;;;;;5.10;1.70;;;;;;;;;;107020;1274;22540;-84
2023/08/03 05:38:40;;;;;;;5.90;1.70;;;;;;;;;;106944;1254;22904;-82
2023/08/03 05:41:12;;;;;;;6.10;1.80;;;;;;;;;;107102;1274;22531;-79
2023/08/03 05:43:39;;;;;;;4.30;1.50;;;;;;;;;;106885;1274;22777;-81
2023/08/03 05:46:11;;;;;;;7.20;1.70;;;;;;;;;;107092;1274;22772;-78
2023/08/03 05:48:38;;;;;;;8.00;1.70;;;;;;;;;;106942;1251;22664;-79
2023/08/03 05:51:05;;;;;;;6.80;1.60;;;;;;;;;;106969;1275;25217;-83
2023/08/03 05:53:32;;;;;;;7.80;1.60;;;;;;;;;;106988;1275;25268;-78
2023/08/03 05:55:59;;;;;;;4.30;1.40;;;;;;;;;;107083;1275;22531;-79
2023/08/03 05:58:26;;;;;;;5.30;1.60;;;;;;;;;;106946;1275;22629;-78
2023/08/03 06:00:52;;;;;;;5.20;1.50;;;;;;;;;;106888;1258;24265;-78
2023/08/03 06:03:19;;;;;;;6.30;1.60;;;;;;;;;;106915;1274;22541;-81
2023/08/03 06:05:47;;;;;;;8.80;1.50;;;;;;;;;;106945;1274;24309;-83
2023/08/03 06:08:18;;;;;;;4.60;1.00;;;;;;;;;;110504;1274;22137;-79
2023/08/03 06:10:46;;;;;;;8.90;1.80;;;;;;;;;;110633;1256;22249;-79
2023/08/03 06:13:13;;;;;;;6.50;1.40;;;;;;;;;;110664;1274;23243;-79
2023/08/03 06:15:40;;;;;;;4.30;1.50;;;;;;;;;;110613;1275;21937;-80
2023/08/03 06:18:09;;;;;;;6.60;1.30;;;;;;;;;;110676;1272;22109;-79
2023/08/03 06:20:39;;;;;;;6.90;1.50;;;;;;;;;;110709;1251;22098;-79
2023/08/03 06:23:10;;;;;;;6.10;1.10;;;;;;;;;;110506;1274;22113;-79
2023/08/03 06:25:37;;;;;;;8.80;1.60;;;;;;;;;;110707;1274;22291;-79
2023/08/03 06:28:05;;;;;;;6.10;1.40;;;;;;;;;;110674;1274;22824;-80
2023/08/03 06:30:35;;;;;;;6.80;1.40;;;;;;;;;;110643;1257;22721;-79
2023/08/03 06:33:02;;;;;;;6.30;1.00;;;;;;;;;;110507;1274;22343;-79
2023/08/03 06:35:32;;;;;;;5.60;1.60;;;;;;;;;;110456;1274;22138;-79
2023/08/03 06:37:59;;;;;;;5.80;1.40;;;;;;;;;;110515;1274;22163;-78
2023/08/03 06:40:26;;;;;;;5.80;1.40;;;;;;;;;;110849;1253;22099;-76
2023/08/03 06:42:53;;;;;;;6.60;1.70;;;;;;;;;;110637;1272;22138;-79
2023/08/03 06:45:20;;;;;;;5.40;1.30;;;;;;;;;;110545;1274;22144;-77
2023/08/03 06:47:47;;;;;;;6.50;1.20;;;;;;;;;;110522;1274;22329;-78
2023/08/03 06:50:14;;;;;;;5.20;1.60;;;;;;;;;;110543;1254;22194;-79
2023/08/03 06:52:43;;;;;;;5.20;1.50;;;;;;;;;;110530;1274;22114;-82
2023/08/03 06:55:10;;;;;;;7.20;1.50;;;;;;;;;;110675;1269;22103;-78
2023/08/03 06:57:37;;;;;;;6.50;1.50;;;;;;;;;;110618;1274;22400;-78
2023/08/03 07:00:05;;;;;;;6.00;1.50;;;;;;;;;;110510;1251;22150;-78
2023/08/03 07:02:31;;;;;;;7.10;1.70;;;;;;;;;;110653;1274;22253;-78
2023/08/03 07:05:07;;;;;;;5.50;1.60;;;;;;;;;;110514;1274;22525;-78
2023/08/03 07:07:34;;;;;;;7.00;1.50;;;;;;;;;;110527;1274;22195;-77
2023/08/03 07:10:01;;;;;;;5.40;1.60;;;;;;;;;;110504;1274;22375;-79
2023/08/03 07:12:28;;;;;;;7.00;1.30;;;;;;;;;;110489;1256;22726;-78
2023/08/03 07:14:55;;;;;;;5.50;1.40;;;;;;;;;;110508;1274;22144;-78
2023/08/03 07:17:22;;;;;;;5.00;1.50;;;;;;;;;;110639;1274;22110;-77
2023/08/03 07:19:51;;;;;;;8.40;1.70;;;;;;;;;;110655;1274;22749;-78
2023/08/03 07:22:18;;;;;;;6.00;1.50;;;;;;;;;;110840;1254;22123;-77
2023/08/03 07:24:45;;;;;;;5.70;1.10;;;;;;;;;;110646;1274;22130;-78
2023/08/03 07:27:11;;;;;;;6.60;1.30;;;;;;;;;;110677;1274;22908;-77
2023/08/03 07:29:38;;;;;;;5.60;1.30;;;;;;;;;;110625;1274;22162;-77
2023/08/03 07:32:05;;;;;;;4.10;1.20;;;;;;;;;;110868;1254;22160;-78
2023/08/03 07:34:32;;;;;;;8.30;1.50;;;;;;;;;;110609;1274;22133;-79
2023/08/03 07:37:00;;;;;;;7.10;1.30;;;;;;;;;;110604;1274;22164;-78
2023/08/03 07:39:27;;;;;;;6.20;1.80;;;;;;;;;;110501;1275;22110;-78
2023/08/03 07:41:54;;;;;;;7.70;1.70;;;;;;;;;;110583;1259;22411;-79
2023/08/03 07:44:21;;;;;;;5.20;1.70;;;;;;;;;;110669;1267;22879;-78
2023/08/03 07:46:48;;;;;;;6.60;1.50;;;;;;;;;;110603;1269;22826;-79
2023/08/03 07:49:15;;;;;;;9.70;1.70;;;;;;;;;;110489;1274;22152;-78
2023/08/03 07:51:43;;;;;;;6.10;1.50;;;;;;;;;;110671;1259;22120;-78
2023/08/03 07:54:10;;;;;;;4.90;1.20;;;;;;;;;;110613;1275;22074;-80
2023/08/03 07:56:37;;;;;;;5.40;1.10;;;;;;;;;;110474;1275;22994;-79
2023/08/03 07:59:10;;;;;;;6.20;1.50;;;;;;;;;;110507;1275;22098;-78
2023/08/03 08:01:37;;;;;;;7.70;1.40;;;;;;;;;;110503;1259;22106;-79
2023/08/03 08:04:13;;;;;;;5.90;1.20;;;;;;;;;;110666;1274;22108;-78
2023/08/03 08:06:40;;;;;;;5.70;1.80;;;;;;;;;;110674;1274;22079;-79
2023/08/03 08:09:07;;;;;;;5.90;1.40;;;;;;;;;;110607;1274;22116;-81
2023/08/03 08:11:37;;;;;;;6.20;1.60;;;;;;;;;;110688;1253;22151;-79
2023/08/03 08:14:07;;;;;;;5.20;1.40;;;;;;;;;;110630;1275;22557;-78
2023/08/03 08:16:34;;;;;;;7.10;1.90;;;;;;;;;;110606;1275;22099;-77
2023/08/03 08:19:00;;;;;;;6.70;1.70;;;;;;;;;;110451;1275;22298;-78
2023/08/03 08:21:27;;;;;;;6.10;1.50;;;;;;;;;;110490;1261;22508;-78
2023/08/03 08:23:55;;;;;;;5.40;1.60;;;;;;;;;;110625;1256;22406;-80
2023/08/03 08:26:22;;;;;;;7.10;1.50;;;;;;;;;;110667;1274;22088;-78
2023/08/03 08:28:48;;;;;;;7.00;1.60;;;;;;;;;;110652;1274;22381;-79
2023/08/03 08:31:15;;;;;;;8.10;1.60;;;;;;;;;;110647;1274;22262;-81
2023/08/03 08:33:42;;;;;;;7.70;1.50;;;;;;;;;;110970;1254;22151;-82
2023/08/03 08:36:09;;;;;;;5.60;0.90;;;;;;;;;;110483;1275;22090;-80
2023/08/03 08:38:36;;;;;;;5.60;1.50;;;;;;;;;;110617;1272;22213;-78
2023/08/03 08:41:03;;;;;;;5.50;1.50;;;;;;;;;;110602;1275;22121;-80
2023/08/03 08:43:31;;;;;;;5.20;1.10;;;;;;;;;;110972;1254;22154;-80
2023/08/03 08:45:58;;;;;;;9.60;1.60;;;;;;;;;;110632;1274;22094;-79
2023/08/03 08:48:25;;;;;;;4.90;1.20;;;;;;;;;;110538;1274;22204;-78
2023/08/03 08:50:52;;;;;;;9.00;1.30;;;;;;;;;;110520;1274;22746;-80
2023/08/03 08:53:20;;;;;;;7.20;1.50;;;;;;;;;;110507;1256;22214;-79
2023/08/03 08:55:50;;;;;;;7.30;1.60;;;;;;;;;;110385;1276;22127;-79
2023/08/03 08:58:17;;;;;;;10.30;1.60;;;;;;;;;;110326;1276;22127;-80
2023/08/03 09:00:45;;;;;;;16.30;1.50;;;;;;;;;;110612;1276;22718;-79
2023/08/03 09:03:16;;;;;;;5.70;1.50;;;;;;;;;;110722;1255;22281;-79
2023/08/03 09:05:45;;;;;;;11.00;1.80;;;;;;;;;;110537;1274;22117;-79
2023/08/03 09:08:14;;;;;;;9.30;1.50;;;;;;;;;;110555;1274;22317;-80
2023/08/03 09:10:49;;;;;;;15.60;1.20;;;;;;;;;;110677;1274;22114;-82
2023/08/03 09:13:31;;;;;;;7.90;1.40;;;;;;;;;;110459;1259;22108;-82
2023/08/03 09:16:00;;;;;;;6.70;1.50;;;;;;;;;;110770;1253;22076;-79
2023/08/03 09:18:29;;;;;;;7.40;1.50;;;;;;;;;;110473;1273;22129;-80
2023/08/03 09:21:15;;;;;;;6.40;1.60;;;;;;;;;;110591;1268;22192;-80
2023/08/03 09:23:42;;;;;;;6.70;1.60;;;;;;;;;;110489;1275;22127;-80
2023/08/03 09:26:10;;;;;;;5.80;1.00;;;;;;;;;;110781;1256;21996;-83
2023/08/03 09:28:38;;;;;;;6.90;1.40;;;;;;;;;;110637;1274;22213;-80
2023/08/03 09:31:08;;;;;;;8.70;1.40;;;;;;;;;;110519;1274;22200;-81
2023/08/03 09:33:36;;;;;;;9.60;1.30;;;;;;;;;;110529;1274;23053;-80
2023/08/03 09:36:10;;;;;;;8.40;1.10;;;;;;;;;;110520;1255;22793;-81
2023/08/03 09:38:38;;;;;;;10.00;1.60;;;;;;;;;;110587;1276;22115;-80
2023/08/03 09:41:05;;;;;;;5.10;1.00;;;;;;;;;;110243;1276;22096;-82
2023/08/03 09:43:32;;;;;;;7.20;1.30;;;;;;;;;;110612;1275;22747;-81
2023/08/03 09:46:05;;;;;;;8.10;1.80;;;;;;;;;;110548;1259;22187;-82
2023/08/03 09:48:32;;;;;;;16.00;2.00;;;;;;;;;;110480;1275;22077;-80
2023/08/03 09:50:59;;;;;;;8.20;1.20;;;;;;;;;;110595;1275;22168;-80
2023/08/03 09:53:28;;;;;;;9.80;1.50;;;;;;;;;;110642;1275;22208;-81
2023/08/03 09:56:00;;;;;;;13.40;1.80;;;;;;;;;;110604;1253;22121;-81
2023/08/03 09:58:38;;;;;;;8.10;1.60;;;;;;;;;;110351;1276;22840;-81
2023/08/03 10:01:08;;;;;;;9.40;1.20;;;;;;;;;;110581;1275;22279;-82
2023/08/03 10:03:35;;;;;;;5.40;1.20;;;;;;;;;;110604;1276;22744;-82
2023/08/03 10:06:31;;;;;;;8.70;1.20;;;;;;;;;;110616;1254;22183;-80
2023/08/03 10:09:02;;;;;;;9.10;1.40;;;;;;;;;;110445;1275;22222;-81
2023/08/03 10:11:53;;;;;;;6.80;1.10;;;;;;;;;;110614;1275;22098;-82
2023/08/03 10:14:30;;;;;;;6.20;1.10;;;;;;;;;;110617;1275;22851;-81
2023/08/03 10:17:00;;;;;;;7.10;1.10;;;;;;;;;;110729;1257;22170;-81
2023/08/03 10:19:28;;;;;;;8.00;1.50;;;;;;;;;;110443;1276;22763;-83
2023/08/03 10:21:55;;;;;;;5.30;1.50;;;;;;;;;;110486;1276;22753;-81
2023/08/03 10:24:22;;;;;;;6.50;1.30;;;;;;;;;;110481;1273;22090;-80
2023/08/03 10:26:54;;;;;;;5.20;1.20;;;;;;;;;;110616;1254;22218;-83
2023/08/03 10:29:40;;;;;;;7.70;1.40;;;;;;;;;;110497;1275;22160;-84
2023/08/03 10:32:21;;;;;;;9.00;1.30;;;;;;;;;;110624;1275;22088;-81
2023/08/03 10:34:58;;;;;;;6.80;1.50;;;;;;;;;;110484;1275;22110;-84
2023/08/03 10:37:28;;;;;;;12.40;2.40;;;;;;;;;;110599;1259;22257;-83
2023/08/03 10:40:03;;;;;;;5.50;1.20;;;;;;;;;;110419;1277;22264;-82
2023/08/03 10:42:35;;;;;;;9.10;1.20;;;;;;;;;;110468;1277;22179;-82
2023/08/03 10:45:20;;;;;;;7.70;1.20;;;;;;;;;;110383;1276;22127;-81
2023/08/03 10:48:11;;;;;;;9.10;1.60;;;;;;;;;;110867;1255;22106;-81
2023/08/03 10:50:56;;;;;;;6.80;1.30;;;;;;;;;;110472;1275;22091;-81
2023/08/03 10:53:24;;;;;;;5.00;1.20;;;;;;;;;;110610;1275;22110;-82
2023/08/03 10:56:14;;;;;;;10.00;1.60;;;;;;;;;;110657;1275;22116;-82
2023/08/03 10:58:44;;;;;;;8.50;1.60;;;;;;;;;;110607;1259;22864;-82
2023/08/03 11:01:20;;;;;;;10.10;1.80;;;;;;;;;;110471;1276;22137;-83
2023/08/03 11:04:05;;;;;;;7.80;1.50;;;;;;;;;;110492;1276;22113;-85
2023/08/03 11:06:33;;;;;;;7.00;1.70;;;;;;;;;;110484;1276;22045;-83
2023/08/03 11:09:00;;;;;;;17.70;1.80;;;;;;;;;;110654;1253;22298;-83
2023/08/03 11:11:32;;;;;;;6.20;1.30;;;;;;;;;;110622;1274;22115;-81
2023/08/03 11:13:59;;;;;;;7.20;1.20;;;;;;;;;;110521;1275;22911;-85
2023/08/03 11:16:26;;;;;;;5.40;1.00;;;;;;;;;;110664;1275;22114;-82
2023/08/03 11:18:53;;;;;;;6.10;1.10;;;;;;;;;;110572;1258;22131;-81
2023/08/03 11:21:20;;;;;;;7.30;1.30;;;;;;;;;;110472;1276;22885;-84
2023/08/03 11:23:49;;;;;;;4.50;1.10;;;;;;;;;;110383;1276;22908;-83
2023/08/03 11:26:16;;;;;;;7.00;1.40;;;;;;;;;;110304;1276;22111;-83
2023/08/03 11:28:43;;;;;;;7.30;1.30;;;;;;;;;;110780;1253;22180;-84
2023/08/03 11:31:14;;;;;;;8.00;1.30;;;;;;;;;;110609;1275;22284;-85
2023/08/03 11:33:46;;;;;;;7.20;1.20;;;;;;;;;;110658;1274;22718;-85
2023/08/03 11:36:14;;;;;;;11.90;1.90;;;;;;;;;;110517;1274;22868;-84
2023/08/03 11:38:42;;;;;;;9.90;1.50;;;;;;;;;;110670;1256;22120;-83
2023/08/03 11:41:19;;;;;;;5.90;1.40;;;;;;;;;;110468;1276;22594;-83
2023/08/03 11:43:48;;;;;;;7.30;1.10;;;;;;;;;;110630;1276;22211;-85
2023/08/03 11:46:26;;;;;;;7.10;1.30;;;;;;;;;;110670;1276;22146;-83
2023/08/03 11:48:57;;;;;;;5.80;1.50;;;;;;;;;;110443;1259;22104;-83
2023/08/03 11:51:32;;;;;;;7.30;1.40;;;;;;;;;;110483;1275;22128;-85
2023/08/03 11:54:02;;;;;;;8.30;1.40;;;;;;;;;;110622;1275;22726;-85
2023/08/03 11:56:29;;;;;;;5.40;1.40;;;;;;;;;;110415;1275;22101;-82
2023/08/03 11:58:57;;;;;;;7.50;1.00;;;;;;;;;;110576;1259;22014;-84
2023/08/03 12:01:25;;;;;;;4.70;1.10;;;;;;;;;;110478;1277;22093;-82
2023/08/03 12:04:09;;;;;;;3.80;1.20;;;;;;;;;;110285;1277;22800;-83
2023/08/03 12:06:43;;;;;;;3.50;1.00;;;;;;;;;;110467;1277;22067;-82
2023/08/03 12:09:17;;;;;;;3.90;1.00;;;;;;;;;;110624;1257;22133;-82
2023/08/03 12:11:44;;;;;;;4.80;1.40;;;;;;;;;;110616;1275;22101;-83
2023/08/03 12:14:16;;;;;;;4.70;0.90;;;;;;;;;;110507;1275;22824;-82
2023/08/03 12:16:44;;;;;;;6.60;1.40;;;;;;;;;;110491;1275;22941;-82
2023/08/03 12:19:11;;;;;;;4.60;1.20;;;;;;;;;;110513;1259;22110;-83
2023/08/03 12:21:39;;;;;;;6.20;1.20;;;;;;;;;;110265;1277;22120;-82
2023/08/03 12:24:07;;;;;;;6.00;1.10;;;;;;;;;;110435;1277;22187;-83
2023/08/03 12:26:35;;;;;;;6.20;1.20;;;;;;;;;;110289;1275;22130;-83
2023/08/03 12:29:05;;;;;;;5.60;1.20;;;;;;;;;;110537;1254;22123;-82
2023/08/03 12:31:34;;;;;;;7.20;0.90;;;;;;;;;;110394;1272;22217;-81
2023/08/03 12:34:02;;;;;;;2.60;0.50;;;;;;;;;;110494;1275;22271;-81
2023/08/03 12:36:30;;;;;;;5.10;0.90;;;;;;;;;;110484;1275;22145;-83
2023/08/03 12:38:59;;;;;;;6.80;1.10;;;;;;;;;;110469;1254;22362;-82
2023/08/03 12:41:28;;;;;;;7.60;1.10;;;;;;;;;;110263;1276;22194;-82
2023/08/03 12:43:58;;;;;;;6.30;1.00;;;;;;;;;;110266;1276;22193;-82
2023/08/03 12:46:27;;;;;;;5.90;1.20;;;;;;;;;;110378;1276;22099;-85
2023/08/03 12:48:58;;;;;;;6.10;1.00;;;;;;;;;;110553;1272;22671;-83
2023/08/03 12:51:26;;;;;;;6.00;1.30;;;;;;;;;;110543;1260;22015;-83
2023/08/03 12:53:55;;;;;;;8.20;1.10;;;;;;;;;;110381;1276;22294;-82
2023/08/03 12:56:26;;;;;;;7.60;1.20;;;;;;;;;;110325;1275;22108;-83
2023/08/03 12:58:55;;;;;;;5.10;1.10;;;;;;;;;;110375;1276;22134;-82
2023/08/03 13:01:25;;;;;;;6.70;0.80;;;;;;;;;;110707;1260;22148;-82
2023/08/03 13:03:54;;;;;;;5.00;0.90;;;;;;;;;;110236;1277;22063;-82
2023/08/03 13:06:22;;;;;;;6.80;1.50;;;;;;;;;;110259;1277;22917;-82
2023/08/03 13:08:52;;;;;;;6.10;1.00;;;;;;;;;;110245;1277;22156;-83
2023/08/03 13:11:21;;;;;;;5.00;0.80;;;;;;;;;;110459;1260;22140;-83
2023/08/03 13:13:50;;;;;;;3.00;0.70;;;;;;;;;;110464;1276;22120;-84
2023/08/03 13:16:19;;;;;;;7.00;1.00;;;;;;;;;;110467;1275;21994;-83
2023/08/03 13:18:49;;;;;;;5.80;1.10;;;;;;;;;;110304;1276;22106;-82
2023/08/03 13:21:22;;;;;;;5.30;1.00;;;;;;;;;;110534;1260;22111;-81
2023/08/03 13:23:51;;;;;;;7.10;1.20;;;;;;;;;;110388;1275;22591;-84
2023/08/03 13:26:20;;;;;;;8.50;1.00;;;;;;;;;;110431;1277;22996;-83
2023/08/03 13:28:50;;;;;;;5.60;0.90;;;;;;;;;;110349;1277;22088;-82
2023/08/03 13:31:20;;;;;;;4.50;0.70;;;;;;;;;;110408;1260;22859;-82
2023/08/03 13:33:50;;;;;;;3.70;0.90;;;;;;;;;;110500;1276;22083;-82
2023/08/03 13:36:19;;;;;;;6.40;1.20;;;;;;;;;;110509;1266;21985;-82
2023/08/03 13:45:49;;;;;;;8.60;1.00;;;;;;;;;;103990;1295;545115;-88
2023/08/03 13:48:15;;;;;;;5.80;1.00;;;;;;;;;;106094;1282;22529;-83
2023/08/03 13:50:42;;;;;;;6.70;1.20;;;;;;;;;;106886;1277;25407;-82
2023/08/03 13:53:09;;;;;;;5.50;0.90;;;;;;;;;;106956;1275;25542;-85
2023/08/03 13:55:36;;;;;;;8.10;1.10;;;;;;;;;;106934;1259;22523;-82
2023/08/03 13:58:06;;;;;;;9.00;1.20;;;;;;;;;;106943;1269;22517;-82
2023/08/03 14:00:34;;;;;;;10.00;1.50;;;;;;;;;;105145;1266;3180734;-83
2023/08/03 14:03:03;;;;;;;6.70;1.10;;;;;;;;;;107348;1267;22580;-82
2023/08/03 14:05:30;;;;;;;5.00;1.00;;;;;;;;;;107227;1267;22728;-87
2023/08/03 14:07:57;;;;;;;4.30;1.00;;;;;;;;;;107006;1274;24304;-86
2023/08/03 14:10:23;;;;;;;4.00;0.70;;;;;;;;;;107054;1275;22488;-82
2023/08/03 14:12:51;;;;;;;5.40;1.00;;;;;;;;;;107232;1263;22539;-87
2023/08/03 14:15:18;;;;;;;6.80;1.30;;;;;;;;;;107158;1251;22537;-90
2023/08/03 14:17:45;;;;;;;6.90;1.10;;;;;;;;;;107109;1274;22594;-85
2023/08/03 14:20:12;;;;;;;6.60;1.00;;;;;;;;;;107208;1274;24360;-82
2023/08/03 14:22:39;;;;;;;7.40;1.30;;;;;;;;;;107208;1275;24180;-83
2023/08/03 14:25:08;;;;;;;5.30;1.00;;;;;;;;;;107287;1272;22534;-81
2023/08/03 14:27:35;;;;;;;4.30;0.70;;;;;;;;;;107165;1274;22523;-83
2023/08/03 14:30:02;;;;;;;6.40;1.20;;;;;;;;;;107111;1274;22519;-84
2023/08/03 14:32:29;;;;;;;4.50;1.20;;;;;;;;;;107129;1274;25268;-86
2023/08/03 14:34:56;;;;;;;4.50;0.80;;;;;;;;;;107152;1274;25255;-86
2023/08/03 14:37:23;;;;;;;5.30;1.00;;;;;;;;;;107264;1256;22533;-84
2023/08/03 14:39:52;;;;;;;10.00;1.00;;;;;;;;;;107193;1274;22524;-82
2023/08/03 14:42:19;;;;;;;4.80;0.80;;;;;;;;;;107092;1274;22518;-89
2023/08/03 14:44:46;;;;;;;3.00;0.90;;;;;;;;;;107091;1274;22527;-82
2023/08/03 14:47:14;;;;;;;5.50;1.00;;;;;;;;;;106955;1258;22656;-82
2023/08/03 14:49:44;;;;;;;5.20;0.90;;;;;;;;;;107083;1274;24196;-87
2023/08/03 14:52:11;;;;;;;6.10;1.00;;;;;;;;;;107139;1274;24167;-84
2023/08/03 14:54:39;;;;;;;5.60;0.80;;;;;;;;;;107124;1274;24228;-90